createdAt,value
2019-04-30T00:00:12.532Z,5.27
2019-04-30T00:02:48.038Z,5.23
2019-04-30T00:05:18.804Z,5.23
2019-04-30T00:07:46.093Z,4.80
2019-04-30T00:10:12.465Z,4.87
2019-04-30T00:12:39.752Z,4.67
2019-04-30T00:15:10.896Z,5.00
2019-04-30T00:17:35.923Z,4.93
2019-04-30T00:20:03.169Z,5.13
2019-04-30T00:22:33.829Z,5.13
2019-04-30T00:24:58.754Z,5.07
2019-04-30T00:27:30.026Z,4.60
2019-04-30T00:29:55.819Z,4.67
2019-04-30T00:32:22.874Z,4.80
2019-04-30T00:34:49.667Z,4.43
2019-04-30T00:37:18.774Z,4.57
2019-04-30T00:39:50.856Z,4.00
2019-04-30T00:42:17.256Z,5.23
2019-04-30T00:44:42.949Z,4.20
2019-04-30T00:47:09.535Z,5.20
2019-04-30T00:49:36.311Z,4.50
2019-04-30T00:52:05.174Z,4.47
2019-04-30T00:54:32.033Z,4.90
2019-04-30T00:57:03.613Z,4.30
2019-04-30T00:59:27.545Z,5.23
2019-04-30T01:02:31.698Z,4.43
2019-04-30T01:04:58.304Z,5.13
2019-04-30T01:07:23.380Z,4.27
2019-04-30T01:09:50.119Z,4.83
2019-04-30T01:12:24.576Z,5.03
2019-04-30T01:14:45.737Z,5.40
2019-04-30T01:17:12.502Z,5.07
2019-04-30T01:19:39.610Z,4.27
2019-04-30T01:22:06.338Z,4.83
2019-04-30T01:24:33.453Z,4.80
2019-04-30T01:27:06.239Z,5.20
2019-04-30T01:29:31.105Z,5.03
2019-04-30T01:31:58.594Z,4.63
2019-04-30T01:34:25.473Z,5.10
2019-04-30T01:36:52.394Z,4.73
2019-04-30T01:39:19.527Z,4.80
2019-04-30T01:41:48.623Z,5.43
2019-04-30T01:44:15.939Z,4.93
2019-04-30T01:46:43.259Z,5.17
2019-04-30T01:49:11.179Z,5.33
2019-04-30T01:51:38.701Z,5.27
2019-04-30T01:54:05.732Z,4.90
2019-04-30T01:56:59.384Z,4.80
2019-04-30T01:59:48.672Z,4.80
2019-04-30T02:02:15.924Z,5.10
2019-04-30T02:04:42.642Z,5.30
2019-04-30T02:07:09.743Z,5.40
2019-04-30T02:09:36.528Z,5.20
2019-04-30T02:12:03.372Z,5.47
2019-04-30T02:14:29.988Z,5.67
2019-04-30T02:16:56.672Z,5.73
2019-04-30T02:19:23.344Z,5.57
2019-04-30T02:21:50.298Z,5.60
2019-04-30T02:24:19.042Z,5.17
2019-04-30T02:26:45.574Z,5.30
2019-04-30T02:29:12.846Z,5.60
2019-04-30T02:31:40.765Z,5.80
2019-04-30T02:34:21.716Z,5.37
2019-04-30T02:36:55.932Z,5.97
2019-04-30T02:39:23.358Z,5.67
2019-04-30T02:41:50.595Z,6.10
2019-04-30T02:44:19.566Z,5.37
2019-04-30T02:46:46.463Z,5.30
2019-04-30T02:49:13.306Z,6.10
2019-04-30T02:51:40.131Z,5.73
2019-04-30T02:54:06.835Z,6.00
2019-04-30T02:56:33.538Z,6.37
2019-04-30T02:59:03.618Z,5.57
2019-04-30T03:01:30.475Z,5.27
2019-04-30T03:03:59.793Z,4.83
2019-04-30T03:06:26.303Z,6.33
2019-04-30T03:08:53.806Z,5.47
2019-04-30T03:11:20.968Z,4.83
2019-04-30T03:13:49.454Z,5.13
2019-04-30T03:16:20.908Z,5.47
2019-04-30T03:19:09.909Z,6.27
2019-04-30T03:21:50.510Z,5.63
2019-04-30T03:24:19.996Z,5.63
2019-04-30T03:26:49.673Z,6.53
2019-04-30T03:29:15.251Z,5.57
2019-04-30T03:31:44.878Z,5.97
2019-04-30T03:34:16.599Z,6.10
2019-04-30T03:36:40.418Z,6.03
2019-04-30T03:39:10.363Z,5.57
2019-04-30T03:41:36.061Z,6.47
2019-04-30T03:44:17.161Z,7.10
2019-04-30T03:46:31.523Z,5.70
2019-04-30T03:49:00.194Z,6.17
2019-04-30T03:51:26.966Z,6.93
2019-04-30T03:53:54.221Z,6.60
2019-04-30T03:56:22.887Z,7.03
2019-04-30T03:58:50.364Z,6.73
2019-04-30T04:01:35.304Z,7.07
2019-04-30T04:04:31.051Z,6.57
2019-04-30T04:07:20.481Z,7.23
2019-04-30T04:09:54.259Z,6.70
2019-04-30T04:12:21.277Z,6.43
2019-04-30T04:14:50.712Z,7.70
2019-04-30T04:17:16.604Z,7.80
2019-04-30T04:19:43.672Z,7.20
2019-04-30T04:22:12.297Z,7.13
2019-04-30T04:24:40.170Z,7.23
2019-04-30T04:27:09.575Z,7.77
2019-04-30T04:29:35.760Z,7.47
2019-04-30T04:32:02.797Z,7.90
2019-04-30T04:34:30.302Z,8.23
2019-04-30T04:37:00.049Z,8.07
2019-04-30T04:39:26.265Z,7.20
2019-04-30T04:41:52.943Z,7.73
2019-04-30T04:44:20.297Z,7.30
2019-04-30T04:46:49.995Z,7.60
2019-04-30T04:49:16.299Z,7.33
2019-04-30T04:51:43.030Z,7.37
2019-04-30T04:54:10.736Z,7.33
2019-04-30T04:56:39.854Z,8.07
2019-04-30T04:59:05.952Z,7.60
2019-04-30T05:01:33.298Z,6.97
2019-04-30T05:04:00.424Z,7.27
2019-04-30T05:06:29.636Z,7.50
2019-04-30T05:08:55.756Z,7.27
2019-04-30T05:11:24.597Z,7.37
2019-04-30T05:13:51.884Z,8.37
2019-04-30T05:16:19.212Z,7.63
2019-04-30T05:18:46.501Z,8.00
2019-04-30T05:21:15.354Z,7.90
2019-04-30T05:23:42.739Z,7.40
2019-04-30T05:26:11.134Z,7.83
2019-04-30T05:28:39.386Z,7.07
2019-04-30T05:31:06.242Z,7.40
2019-04-30T05:33:33.135Z,7.37
2019-04-30T05:35:59.968Z,7.53
2019-04-30T05:38:26.631Z,7.83
2019-04-30T05:40:53.452Z,7.57
2019-04-30T05:43:20.471Z,7.57
2019-04-30T05:45:48.978Z,7.23
2019-04-30T05:48:15.591Z,7.73
2019-04-30T05:50:42.744Z,6.20
2019-04-30T05:53:09.513Z,7.73
2019-04-30T05:55:36.227Z,7.60
2019-04-30T05:58:03.094Z,6.97
2019-04-30T06:00:30.722Z,7.20
2019-04-30T06:02:59.315Z,7.60
2019-04-30T06:05:26.292Z,7.20
2019-04-30T06:07:55.312Z,6.67
2019-04-30T06:10:44.440Z,7.10
2019-04-30T06:13:19.011Z,6.80
2019-04-30T06:15:53.001Z,6.57
2019-04-30T06:18:20.436Z,7.33
2019-04-30T06:20:49.008Z,6.63
2019-04-30T06:23:19.441Z,6.33
2019-04-30T06:25:56.444Z,6.10
2019-04-30T06:28:13.484Z,6.80
2019-04-30T06:30:40.273Z,7.40
2019-04-30T06:33:09.205Z,6.60
2019-04-30T06:35:35.555Z,6.33
2019-04-30T06:38:02.315Z,6.50
2019-04-30T06:40:29.559Z,6.10
2019-04-30T06:42:56.736Z,6.67
2019-04-30T06:45:23.498Z,6.20
2019-04-30T06:47:50.228Z,6.70
2019-04-30T06:50:19.203Z,6.80
2019-04-30T06:52:56.289Z,7.43
2019-04-30T06:55:14.207Z,6.60
2019-04-30T06:57:40.954Z,6.77
2019-04-30T07:00:09.882Z,6.77
2019-04-30T07:02:36.778Z,7.37
2019-04-30T07:05:03.434Z,7.30
2019-04-30T07:07:38.517Z,6.50
2019-04-30T07:10:04.856Z,7.80
2019-04-30T07:12:42.068Z,7.57
2019-04-30T07:15:08.819Z,7.10
2019-04-30T07:17:35.908Z,7.20
2019-04-30T07:20:02.933Z,6.77
2019-04-30T07:22:39.697Z,7.70
2019-04-30T07:24:59.550Z,6.53
2019-04-30T07:27:26.556Z,6.73
2019-04-30T07:29:53.327Z,7.50
2019-04-30T07:32:20.611Z,6.47
2019-04-30T07:34:49.514Z,8.03
2019-04-30T07:37:24.108Z,6.60
2019-04-30T07:39:46.465Z,7.53
2019-04-30T07:42:13.229Z,6.60
2019-04-30T07:44:39.965Z,6.83
2019-04-30T07:47:06.796Z,7.03
2019-04-30T07:49:47.102Z,6.80
2019-04-30T07:52:03.517Z,6.80
2019-04-30T07:54:32.094Z,6.77
2019-04-30T07:57:00.440Z,6.40
2019-04-30T07:59:30.043Z,6.83
2019-04-30T08:02:06.278Z,7.10
2019-04-30T08:04:43.989Z,6.80
2019-04-30T08:07:11.018Z,7.10
2019-04-30T08:09:41.882Z,7.43
2019-04-30T08:12:06.302Z,6.83
2019-04-30T08:14:33.419Z,7.20
2019-04-30T08:17:00.752Z,6.07
2019-04-30T08:19:28.694Z,6.10
2019-04-30T08:21:55.907Z,6.93
2019-04-30T08:24:23.373Z,7.40
2019-04-30T08:26:50.469Z,6.53
2019-04-30T08:29:17.217Z,7.03
2019-04-30T08:31:43.947Z,6.40
2019-04-30T08:34:11.177Z,7.07
2019-04-30T08:36:38.667Z,6.20
2019-04-30T08:39:05.602Z,7.27
2019-04-30T08:41:32.614Z,6.27
2019-04-30T08:43:59.981Z,6.70
2019-04-30T08:46:28.596Z,6.53
2019-04-30T08:48:55.574Z,6.83
2019-04-30T08:51:22.444Z,7.30
2019-04-30T08:56:29.653Z,6.20
2019-04-30T08:58:56.708Z,6.53
2019-04-30T09:01:23.967Z,6.27
2019-04-30T09:03:52.409Z,6.47
2019-04-30T09:06:23.714Z,6.83
2019-04-30T09:08:54.117Z,5.80
2019-04-30T09:11:27.260Z,6.00
2019-04-30T09:13:49.591Z,6.70
2019-04-30T09:16:16.500Z,6.60
2019-04-30T09:18:43.388Z,6.80
2019-04-30T09:21:10.258Z,6.87
2019-04-30T09:23:44.675Z,6.70
2019-04-30T09:26:06.091Z,5.50
2019-04-30T09:28:33.466Z,5.53
2019-04-30T09:31:00.389Z,5.57
2019-04-30T09:33:29.258Z,4.67
2019-04-30T09:35:56.720Z,6.30
2019-04-30T09:38:23.740Z,6.00
2019-04-30T09:40:51.758Z,5.17
2019-04-30T09:43:20.560Z,5.10
2019-04-30T09:45:49.575Z,4.73
2019-04-30T09:48:16.140Z,6.30
2019-04-30T09:50:43.287Z,5.93
2019-04-30T09:53:10.787Z,5.73
2019-04-30T09:55:40.529Z,5.77
2019-04-30T09:58:16.762Z,5.23
2019-04-30T10:00:36.748Z,5.20
2019-04-30T10:03:03.648Z,7.73
2019-04-30T10:05:31.534Z,6.33
2019-04-30T10:08:00.082Z,7.57
2019-04-30T10:10:31.884Z,7.23
2019-04-30T10:12:59.240Z,7.03
2019-04-30T10:15:35.660Z,7.30
2019-04-30T10:18:02.982Z,6.23
2019-04-30T10:20:29.947Z,8.37
2019-04-30T10:22:59.591Z,7.87
2019-04-30T10:25:26.005Z,7.03
2019-04-30T10:27:53.253Z,7.73
2019-04-30T10:30:20.063Z,8.17
2019-04-30T10:32:49.927Z,7.40
2019-04-30T10:35:15.663Z,7.30
2019-04-30T10:37:42.679Z,7.83
2019-04-30T10:40:10.310Z,9.00
2019-04-30T10:42:39.251Z,7.90
2019-04-30T10:45:06.415Z,8.37
2019-04-30T10:47:33.479Z,8.60
2019-04-30T10:50:00.318Z,8.23
2019-04-30T10:52:29.172Z,8.20
2019-04-30T10:54:59.532Z,9.23
2019-04-30T10:57:28.378Z,9.10
2019-04-30T10:59:54.993Z,9.43
2019-04-30T11:02:21.735Z,8.37
2019-04-30T11:04:49.824Z,8.73
2019-04-30T11:07:18.526Z,9.30
2019-04-30T11:09:46.667Z,9.03
2019-04-30T11:12:13.496Z,9.43
2019-04-30T11:14:40.474Z,9.10
2019-04-30T11:17:09.628Z,9.97
2019-04-30T11:19:39.060Z,9.10
2019-04-30T11:22:07.079Z,8.63
2019-04-30T11:24:38.123Z,9.77
2019-04-30T11:27:03.287Z,8.77
2019-04-30T11:29:31.052Z,9.43
2019-04-30T11:32:07.196Z,9.50
2019-04-30T11:34:33.985Z,9.30
2019-04-30T11:37:00.808Z,9.67
2019-04-30T11:39:29.752Z,9.43
2019-04-30T11:41:56.682Z,9.80
2019-04-30T11:44:30.907Z,10.43
2019-04-30T11:46:52.917Z,10.33
2019-04-30T11:49:19.642Z,9.80
2019-04-30T11:51:46.385Z,9.63
2019-04-30T11:54:13.170Z,10.90
2019-04-30T11:59:19.593Z,9.67
2019-04-30T12:01:47.398Z,10.97
2019-04-30T12:04:14.146Z,9.60
2019-04-30T12:06:40.976Z,11.20
2019-04-30T12:09:21.431Z,9.93
2019-04-30T12:11:50.463Z,11.43
2019-04-30T12:14:18.222Z,10.10
2019-04-30T12:16:45.663Z,11.07
2019-04-30T12:19:12.403Z,10.90
2019-04-30T12:21:39.130Z,10.53
2019-04-30T12:24:06.289Z,10.67
2019-04-30T12:26:32.926Z,11.03
2019-04-30T12:28:59.718Z,10.87
2019-04-30T12:31:26.555Z,11.07
2019-04-30T12:33:53.699Z,10.80
2019-04-30T12:36:20.827Z,11.00
2019-04-30T12:38:47.547Z,10.50
2019-04-30T12:41:14.401Z,11.27
2019-04-30T12:43:41.055Z,10.37
2019-04-30T12:46:07.791Z,11.97
2019-04-30T12:48:40.502Z,11.43
2019-04-30T12:51:45.206Z,10.67
2019-04-30T12:54:28.373Z,11.00
2019-04-30T12:57:14.636Z,10.47
2019-04-30T12:59:41.372Z,11.07
2019-04-30T13:02:09.136Z,10.77
2019-04-30T13:04:36.359Z,10.33
2019-04-30T13:07:03.818Z,10.93
2019-04-30T13:09:32.137Z,10.57
2019-04-30T13:12:00.830Z,10.13
2019-04-30T13:14:30.070Z,10.07
2019-04-30T13:16:56.767Z,10.67
2019-04-30T13:19:23.894Z,11.07
2019-04-30T13:21:50.625Z,10.30
2019-04-30T13:24:17.454Z,11.27
2019-04-30T13:26:44.346Z,10.87
2019-04-30T13:29:18.663Z,10.43
2019-04-30T13:31:46.117Z,11.03
2019-04-30T13:34:30.898Z,9.93
2019-04-30T13:36:59.285Z,10.70
2019-04-30T13:39:31.516Z,10.80
2019-04-30T13:42:15.016Z,10.27
2019-04-30T13:44:39.546Z,10.97
2019-04-30T13:47:06.531Z,11.50
2019-04-30T13:49:33.436Z,10.07
2019-04-30T13:52:01.458Z,10.90
2019-04-30T13:54:28.058Z,10.93
2019-04-30T13:56:54.786Z,10.47
2019-04-30T13:59:22.653Z,10.83
2019-04-30T14:01:50.467Z,10.83
2019-04-30T14:04:31.346Z,10.27
2019-04-30T14:07:23.430Z,9.27
2019-04-30T14:09:52.421Z,10.50
2019-04-30T14:12:18.924Z,9.97
2019-04-30T14:14:45.628Z,9.90
2019-04-30T14:17:12.425Z,9.50
2019-04-30T14:19:39.697Z,10.00
2019-04-30T14:22:10.545Z,9.67
2019-04-30T14:24:37.392Z,9.57
2019-04-30T14:27:04.650Z,9.70
2019-04-30T14:29:31.370Z,8.57
2019-04-30T14:31:58.762Z,8.97
2019-04-30T14:34:25.598Z,9.83
2019-04-30T14:36:52.659Z,8.20
2019-04-30T14:39:20.977Z,9.50
2019-04-30T14:41:51.136Z,9.10
2019-04-30T14:44:21.396Z,8.87
2019-04-30T14:47:14.617Z,9.10
2019-04-30T14:50:04.802Z,9.33
2019-04-30T14:52:31.370Z,8.83
2019-04-30T14:55:18.742Z,8.50
2019-04-30T14:58:00.364Z,8.70
2019-04-30T15:00:45.639Z,8.70
2019-04-30T15:03:13.979Z,8.90
2019-04-30T15:05:48.381Z,8.43
2019-04-30T15:08:09.655Z,8.37
2019-04-30T15:10:36.475Z,8.85
2019-04-30T15:13:03.244Z,8.93
2019-04-30T15:15:30.141Z,8.60
2019-04-30T15:17:56.934Z,7.93
2019-04-30T15:20:23.898Z,8.67
2019-04-30T15:23:00.689Z,7.83
2019-04-30T15:25:34.077Z,9.10
2019-04-30T15:27:58.975Z,8.03
2019-04-30T15:30:26.117Z,8.33
2019-04-30T15:32:59.272Z,8.70
2019-04-30T15:35:25.909Z,8.17
2019-04-30T15:37:54.553Z,8.53
2019-04-30T15:40:21.466Z,9.67
2019-04-30T15:42:50.253Z,8.67
2019-04-30T15:45:19.062Z,7.90
2019-04-30T15:47:45.859Z,8.47
2019-04-30T15:50:12.613Z,8.40
2019-04-30T15:52:39.549Z,8.20
2019-04-30T15:55:09.209Z,7.50
2019-04-30T15:57:55.006Z,8.27
2019-04-30T16:00:22.769Z,7.73
2019-04-30T16:02:57.535Z,7.27
2019-04-30T16:05:46.360Z,8.78
2019-04-30T16:08:36.637Z,8.70
2019-04-30T16:11:22.721Z,7.80
2019-04-30T16:14:18.601Z,7.92
2019-04-30T16:16:52.060Z,7.97
2019-04-30T16:19:19.196Z,8.17
2019-04-30T16:21:46.261Z,7.90
2019-04-30T16:24:13.652Z,7.80
2019-04-30T16:26:49.334Z,7.73
2019-04-30T16:29:09.938Z,7.30
2019-04-30T16:31:36.818Z,7.50
2019-04-30T16:34:04.620Z,6.97
2019-04-30T16:36:31.620Z,8.43
2019-04-30T16:39:00.230Z,7.50
2019-04-30T16:41:31.382Z,6.97
2019-04-30T16:43:55.931Z,8.07
2019-04-30T16:46:23.016Z,8.53
2019-04-30T16:48:49.927Z,8.53
2019-04-30T16:51:18.795Z,8.27
2019-04-30T16:53:45.868Z,8.93
2019-04-30T16:56:12.753Z,8.13
2019-04-30T16:58:57.802Z,7.40
2019-04-30T17:01:24.847Z,8.75
2019-04-30T17:03:53.560Z,7.43
2019-04-30T17:06:22.213Z,8.50
2019-04-30T17:09:00.014Z,7.97
2019-04-30T17:11:45.284Z,8.43
2019-04-30T17:14:14.584Z,8.07
2019-04-30T17:16:41.444Z,8.37
2019-04-30T17:19:09.117Z,8.53
2019-04-30T17:21:35.967Z,8.17
2019-04-30T17:24:02.788Z,8.15
2019-04-30T17:26:29.664Z,8.23
2019-04-30T17:28:56.972Z,8.07
2019-04-30T17:31:23.740Z,9.73
2019-04-30T17:33:50.982Z,9.07
2019-04-30T17:36:18.786Z,9.07
2019-04-30T17:38:45.732Z,8.67
2019-04-30T17:41:13.152Z,9.63
2019-04-30T17:43:41.639Z,9.23
2019-04-30T17:46:08.626Z,9.13
2019-04-30T17:48:35.927Z,9.67
2019-04-30T17:51:02.683Z,9.90
2019-04-30T17:53:30.218Z,9.23
2019-04-30T17:55:56.873Z,8.83
2019-04-30T17:58:23.481Z,9.33
2019-04-30T18:00:54.518Z,9.53
2019-04-30T18:03:21.524Z,8.73
2019-04-30T18:05:49.171Z,8.93
2019-04-30T18:08:16.379Z,9.73
2019-04-30T18:10:43.476Z,9.80
2019-04-30T18:13:10.218Z,9.80
2019-04-30T18:15:38.163Z,9.00
2019-04-30T18:18:27.595Z,10.07
2019-04-30T18:21:05.737Z,9.78
2019-04-30T18:23:51.808Z,9.07
2019-04-30T18:26:18.718Z,10.10
2019-04-30T18:28:45.428Z,10.17
2019-04-30T18:31:12.150Z,10.17
2019-04-30T18:33:39.453Z,10.63
2019-04-30T18:36:06.393Z,10.73
2019-04-30T18:38:35.316Z,10.50
2019-04-30T18:41:02.129Z,11.20
2019-04-30T18:43:28.866Z,9.97
2019-04-30T18:45:55.723Z,11.00
2019-04-30T18:48:22.404Z,11.17
2019-04-30T18:50:49.412Z,10.37
2019-04-30T18:53:20.863Z,11.37
2019-04-30T18:55:50.469Z,11.40
2019-04-30T18:58:16.206Z,11.20
2019-04-30T19:00:44.118Z,10.73
2019-04-30T19:03:11.099Z,11.80
2019-04-30T19:05:39.280Z,10.43
2019-04-30T19:08:12.281Z,11.07
2019-04-30T19:11:03.668Z,10.83
2019-04-30T19:13:50.944Z,10.57
2019-04-30T19:16:42.153Z,10.53
2019-04-30T19:19:40.205Z,10.80
2019-04-30T19:22:06.696Z,10.30
2019-04-30T19:24:33.394Z,10.97
2019-04-30T19:27:00.256Z,10.33
2019-04-30T19:29:27.218Z,9.83
2019-04-30T19:31:53.957Z,10.27
2019-04-30T19:34:20.762Z,10.37
2019-04-30T19:36:49.246Z,10.60
2019-04-30T19:39:19.385Z,10.40
2019-04-30T19:41:45.684Z,10.57
2019-04-30T19:44:12.520Z,10.20
2019-04-30T19:46:39.359Z,10.53
2019-04-30T19:49:06.161Z,10.47
2019-04-30T19:51:32.789Z,9.60
2019-04-30T19:53:59.938Z,9.80
2019-04-30T19:56:26.951Z,9.97
2019-04-30T19:59:02.118Z,9.63
2019-04-30T20:01:22.408Z,10.23
2019-04-30T20:03:49.168Z,9.60
2019-04-30T20:06:15.912Z,9.53
2019-04-30T20:08:45.202Z,9.50
2019-04-30T20:11:12.019Z,8.53
2019-04-30T20:13:40.452Z,8.67
2019-04-30T20:16:09.480Z,8.67
2019-04-30T20:18:35.921Z,8.90
2019-04-30T20:21:06.068Z,8.63
2019-04-30T20:23:32.865Z,9.17
2019-04-30T20:25:59.644Z,7.60
2019-04-30T20:28:38.572Z,7.43
2019-04-30T20:30:55.348Z,7.87
2019-04-30T20:33:22.082Z,8.37
2019-04-30T20:35:49.372Z,8.47
2019-04-30T20:38:35.796Z,7.63
2019-04-30T20:41:03.685Z,8.03
2019-04-30T20:43:30.495Z,7.60
2019-04-30T20:45:58.376Z,8.07
2019-04-30T20:48:26.041Z,7.30
2019-04-30T20:50:52.710Z,6.80
2019-04-30T20:53:19.839Z,7.93
2019-04-30T20:55:46.765Z,6.80
2019-04-30T20:58:13.537Z,7.10
2019-04-30T21:00:40.694Z,6.77
2019-04-30T21:03:09.545Z,7.27
2019-04-30T21:05:35.855Z,6.90
2019-04-30T21:08:02.678Z,7.00
2019-04-30T21:10:30.431Z,6.33
2019-04-30T21:12:57.279Z,6.77
2019-04-30T21:15:23.912Z,7.70
2019-04-30T21:17:50.709Z,7.40
2019-04-30T21:20:19.364Z,6.67
2019-04-30T21:22:46.612Z,7.27
2019-04-30T21:25:13.435Z,7.77
2019-04-30T21:27:40.470Z,6.83
2019-04-30T21:30:07.359Z,6.73
2019-04-30T21:33:00.459Z,7.17
2019-04-30T21:35:38.877Z,7.40
2019-04-30T21:38:05.757Z,7.77
2019-04-30T21:40:32.853Z,7.43
2019-04-30T21:42:59.590Z,6.83
2019-04-30T21:45:26.645Z,7.47
2019-04-30T21:47:56.409Z,7.80
2019-04-30T21:50:22.041Z,7.00
2019-04-30T21:52:49.559Z,6.67
2019-04-30T21:55:16.368Z,6.50
2019-04-30T21:57:43.015Z,7.00
2019-04-30T22:00:09.961Z,7.03
2019-04-30T22:02:38.361Z,6.47
2019-04-30T22:05:06.170Z,6.60
2019-04-30T22:07:32.895Z,6.87
2019-04-30T22:09:59.610Z,6.70
2019-04-30T22:12:26.224Z,7.27
2019-04-30T22:14:52.999Z,6.37
2019-04-30T22:17:20.140Z,7.00
2019-04-30T22:19:46.956Z,6.77
2019-04-30T22:22:13.696Z,6.33
2019-04-30T22:24:40.568Z,6.63
2019-04-30T22:27:07.822Z,6.80
2019-04-30T22:29:39.460Z,6.90
2019-04-30T22:32:03.412Z,6.40
2019-04-30T22:34:30.116Z,7.20
2019-04-30T22:36:58.529Z,6.70
2019-04-30T22:39:33.423Z,6.83
2019-04-30T22:42:00.206Z,6.67
2019-04-30T22:44:27.012Z,6.67
2019-04-30T22:46:53.914Z,6.73
2019-04-30T22:49:21.174Z,6.87
2019-04-30T22:51:47.934Z,7.07
2019-04-30T22:54:14.806Z,6.03
2019-04-30T22:56:41.688Z,7.00
2019-04-30T22:59:08.445Z,7.20
2019-04-30T23:01:53.459Z,6.37
2019-04-30T23:04:29.758Z,6.80
2019-04-30T23:06:56.916Z,6.60
2019-04-30T23:09:23.652Z,7.13
2019-04-30T23:11:50.319Z,6.00
2019-04-30T23:14:17.594Z,6.33
2019-04-30T23:16:44.356Z,6.40
2019-04-30T23:19:11.428Z,6.60
2019-04-30T23:21:38.137Z,7.13
2019-04-30T23:24:05.081Z,6.40
2019-04-30T23:26:31.935Z,6.80
2019-04-30T23:28:58.595Z,6.57
2019-04-30T23:31:25.690Z,8.20
2019-04-30T23:33:52.427Z,7.33
2019-04-30T23:36:19.621Z,6.90
2019-04-30T23:38:46.753Z,7.57
2019-04-30T23:41:13.927Z,6.97
2019-04-30T23:43:40.679Z,7.23
2019-04-30T23:46:07.415Z,7.20
2019-04-30T23:48:33.987Z,6.87
2019-04-30T23:51:00.647Z,7.03
2019-04-30T23:53:27.348Z,7.57
2019-04-30T23:55:54.009Z,7.70
2019-04-30T23:58:20.712Z,7.70
